Dayton, OH

9:45 AM EDT on October 24, 2014 (GMT -0400)
Oak Creek | Change Station
CLOSE
Current Station
Personal Weather Station
Location: Kettering, OH
Elevation: 1004 ft
Nearby Weather Stations

Elev 1004 ft 39.67 °N, 84.13 °W | Updated 39 seconds ago

Partly Cloudy
Partly Cloudy
45.9 °F
Feels Like 46 °F
N
0.0
Wind Variable Wind from North
Gusts 0.0 mph

Today
High -- | Low -- °F
--% Chance of Precip.
Yesterday
High -- | Low -- °F
Precip. -- in
7:56 AM 6:44 PM
New Moon, 0% visible
Pressure 30.13 in
Visibility 6.0 miles
Clouds Clear
Windchill 46 °F
Dew Point 46 °F
Humidity 99%
Rainfall 0.00 in
Snow Depth Not available.
UV 0 out of 12
Pollen 1.20 out of 12
Ozone Good
PM2.5 Moderate
Flu Activity Sporadic
METAR KMGY 241253Z AUTO 00000KT 6SM BR CLR 05/04 A3012 RMK AO2 SLP202 T00500039

More Conditions Fewer Conditions

Pressure 30.13 in
Visibility 6.0 miles
Clouds Clear
Windchill 46 °F
Dew Point 46 °F
Humidity 99%
Rainfall 0.00 in
Snow Depth Not available.
UV 0 out of 12
Pollen 1.20 out of 12
Ozone Good
PM2.5 Moderate
Flu Activity Sporadic
METAR KMGY 241253Z AUTO 00000KT 6SM BR CLR 05/04 A3012 RMK AO2 SLP202 T00500039

More Conditions Fewer Conditions

10-Day Weather Forecast

Almanac

Astronomy

Oct. 24, 2014 Rise Set
Actual Time 7:56 AM EDT 6:44 PM EDT
Civil Twilight 7:28 AM EDT 7:12 PM EDT
Nautical Twilight 6:57 AM EDT 7:43 PM EDT
Astronomical Twilight 6:25 AM EDT 8:14 PM EDT
Moon 8:34 AM EDT 7:24 PM EDT
Length of Visible Light 11h 43m
Length of Day
10h 48m
Tomorrow will be 2m 24s shorter.
New Moon, 0% of the Moon is Illuminated
Today
New Moon
Oct 30
First Quarter
Nov 6
Full
Nov 14
Last Quarter
Nov 22
New

Today's Extremes

State Highs State Lows

Community

WunderPhotos

Upload Photos

1,764,551 photos uploaded!

WunderBlogs® & News

Nearby

Air Quality

  Air Quality AQ Index Pollutant
Yesterday Good
PM2.5
Yesterday Good
OZONE
Current Moderate
PM2.5
Current Good
OZONE
Friday Good
PM2.5
Friday Good
OZONE
Saturday Good
PM2.5
Saturday Good
OZONE
Sunday Good
PM2.5
Sunday Good
OZONE
Monday Good
PM2.5
Monday Good
OZONE

Snow Depth

Station Depth Elevation
No new snow has been reported.

Earthquake Activity

City Distance Mag. Time & Date
No recent earthquake activity has been reported nearby.
Minimum magnitude displayed is 2.5.

Coastal Water Temperatures

Place Temperature
No Stations Reporting

Nearby Weather Stations